createdAt,value
2023-03-30T00:02:04.099Z,3.42
2023-03-30T00:04:41.118Z,3.90
2023-03-30T00:07:11.119Z,3.20
2023-03-30T00:09:49.019Z,3.20
2023-03-30T00:12:20.641Z,3.42
2023-03-30T00:14:47.638Z,4.13
2023-03-30T00:17:21.065Z,2.95
2023-03-30T00:19:48.493Z,3.25
2023-03-30T00:22:22.014Z,3.05
2023-03-30T00:24:48.888Z,3.30
2023-03-30T00:27:22.051Z,3.22
2023-03-30T00:29:48.869Z,3.03
2023-03-30T00:32:22.025Z,3.10
2023-03-30T00:34:48.819Z,3.05
2023-03-30T00:37:22.071Z,3.08
2023-03-30T00:39:49.028Z,2.95
2023-03-30T00:42:24.038Z,2.95
2023-03-30T00:45:23.313Z,3.10
2023-03-30T00:48:17.106Z,2.47
2023-03-30T00:50:56.677Z,3.30
2023-03-30T00:53:40.100Z,3.10
2023-03-30T00:56:10.016Z,2.83
2023-03-30T00:58:46.053Z,2.47
2023-03-30T01:01:18.831Z,2.85
2023-03-30T01:03:54.115Z,2.55
2023-03-30T01:06:26.522Z,3.50
2023-03-30T01:09:01.099Z,2.53
2023-03-30T01:11:35.061Z,3.00
2023-03-30T01:14:07.422Z,2.97
2023-03-30T01:16:54.172Z,2.67
2023-03-30T01:19:58.567Z,2.58
2023-03-30T01:23:00.094Z,2.90
2023-03-30T01:25:47.324Z,2.40
2023-03-30T01:28:56.119Z,2.60
2023-03-30T01:31:41.925Z,2.88
2023-03-30T01:34:49.179Z,2.67
2023-03-30T01:38:03.113Z,2.67
2023-03-30T01:40:58.795Z,3.00
2023-03-30T01:43:59.117Z,2.40
2023-03-30T01:46:47.797Z,2.50
2023-03-30T01:49:52.167Z,2.55
2023-03-30T01:52:35.246Z,2.53
2023-03-30T01:55:10.425Z,2.45
2023-03-30T01:58:05.151Z,2.47
2023-03-30T02:00:33.525Z,2.65
2023-03-30T02:03:15.212Z,2.72
2023-03-30T02:05:43.885Z,2.55
2023-03-30T02:08:25.199Z,2.40
2023-03-30T02:10:54.964Z,2.20
2023-03-30T02:13:29.166Z,2.28
2023-03-30T02:16:12.634Z,2.40
2023-03-30T02:18:46.195Z,2.65
2023-03-30T02:21:13.114Z,2.63
2023-03-30T02:23:50.226Z,2.60
2023-03-30T02:26:17.119Z,2.80
2023-03-30T02:28:51.216Z,3.10
2023-03-30T02:31:18.203Z,3.13
2023-03-30T02:34:20.456Z,2.80
2023-03-30T02:37:10.341Z,2.97
2023-03-30T02:40:03.229Z,3.00
2023-03-30T02:43:01.236Z,2.45
2023-03-30T02:46:01.065Z,2.70
2023-03-30T02:48:48.337Z,2.70
2023-03-30T02:51:45.294Z,2.83
2023-03-30T02:54:37.270Z,3.08
2023-03-30T02:57:26.868Z,2.30
2023-03-30T03:00:23.587Z,2.13
2023-03-30T03:02:54.896Z,2.35
2023-03-30T03:05:22.495Z,2.70
2023-03-30T03:07:56.274Z,2.50
2023-03-30T03:10:29.259Z,2.13
2023-03-30T03:12:56.313Z,2.05
2023-03-30T03:15:30.282Z,2.42
2023-03-30T03:17:58.527Z,2.10
2023-03-30T03:20:35.313Z,1.90
2023-03-30T03:23:02.210Z,2.70
2023-03-30T03:25:35.314Z,1.90
2023-03-30T03:28:02.121Z,2.00
2023-03-30T03:30:35.462Z,2.15
2023-03-30T03:33:09.315Z,2.30
2023-03-30T03:35:45.299Z,1.90
2023-03-30T03:38:12.946Z,1.80
2023-03-30T03:40:47.327Z,1.77
2023-03-30T03:43:14.150Z,1.85
2023-03-30T03:45:48.392Z,1.88
2023-03-30T03:48:18.101Z,1.83
2023-03-30T03:50:52.316Z,1.85
2023-03-30T03:53:20.051Z,1.70
2023-03-30T03:55:53.364Z,2.22
2023-03-30T03:58:21.254Z,1.80
2023-03-30T04:00:55.407Z,1.73
2023-03-30T04:03:27.888Z,1.88
2023-03-30T04:06:01.415Z,1.77
2023-03-30T04:08:29.080Z,1.98
2023-03-30T04:11:04.565Z,2.10
2023-03-30T04:13:31.856Z,2.10
2023-03-30T04:16:05.416Z,2.45
2023-03-30T04:18:36.200Z,2.17
2023-03-30T04:21:12.435Z,2.50
2023-03-30T04:23:40.120Z,2.50
2023-03-30T04:26:16.482Z,1.95
2023-03-30T04:28:44.429Z,2.22
2023-03-30T04:31:12.761Z,2.10
2023-03-30T04:33:59.367Z,2.10
2023-03-30T04:36:32.422Z,2.17
2023-03-30T04:39:00.371Z,2.15
2023-03-30T04:41:42.445Z,2.72
2023-03-30T04:44:10.308Z,2.75
2023-03-30T04:46:44.431Z,2.72
2023-03-30T04:49:11.636Z,2.67
2023-03-30T04:51:46.391Z,2.53
2023-03-30T04:54:19.460Z,2.55
2023-03-30T04:56:47.498Z,2.08
2023-03-30T04:59:21.447Z,3.13
2023-03-30T05:01:48.374Z,3.05
2023-03-30T05:04:21.466Z,2.72
2023-03-30T05:06:51.676Z,2.80
2023-03-30T05:09:28.474Z,3.25
2023-03-30T05:11:55.494Z,2.85
2023-03-30T05:14:28.575Z,3.55
2023-03-30T05:16:56.159Z,3.58
2023-03-30T05:19:23.027Z,3.47
2023-03-30T05:21:56.489Z,4.15
2023-03-30T05:24:23.272Z,4.00
2023-03-30T05:26:56.489Z,3.22
2023-03-30T05:29:23.354Z,4.05
2023-03-30T05:32:00.469Z,3.80
2023-03-30T05:34:27.334Z,3.58
2023-03-30T05:37:00.543Z,4.10
2023-03-30T05:39:27.670Z,3.40
2023-03-30T05:42:00.547Z,3.45
2023-03-30T05:44:27.323Z,4.18
2023-03-30T05:47:00.559Z,3.92
2023-03-30T05:49:27.463Z,4.15
2023-03-30T05:52:00.510Z,3.72
2023-03-30T05:54:27.888Z,3.83
2023-03-30T05:56:55.099Z,4.65
2023-03-30T05:59:28.557Z,3.42
2023-03-30T06:02:02.552Z,4.65
2023-03-30T06:04:35.703Z,3.70
2023-03-30T06:07:02.608Z,3.38
2023-03-30T06:09:37.587Z,4.05
2023-03-30T06:12:11.529Z,4.45
2023-03-30T06:14:38.355Z,4.50
2023-03-30T06:17:05.381Z,3.88
2023-03-30T06:19:39.653Z,3.60
2023-03-30T06:22:06.868Z,4.15
2023-03-30T06:24:40.550Z,4.05
2023-03-30T06:27:07.429Z,4.30
2023-03-30T06:29:40.601Z,4.50
2023-03-30T06:32:07.441Z,3.97
2023-03-30T06:34:34.281Z,3.67
2023-03-30T06:37:07.718Z,3.80
2023-03-30T06:39:37.474Z,4.45
2023-03-30T06:42:05.850Z,4.35
2023-03-30T06:44:40.866Z,3.83
2023-03-30T06:47:12.070Z,3.70
2023-03-30T06:49:38.990Z,4.47
2023-03-30T06:52:12.635Z,4.30
2023-03-30T06:54:45.645Z,4.15
2023-03-30T06:57:20.682Z,4.72
2023-03-30T06:59:54.774Z,4.43
2023-03-30T07:02:21.941Z,4.43
2023-03-30T07:04:56.785Z,4.10
2023-03-30T07:07:26.365Z,4.88
2023-03-30T07:09:53.145Z,4.15
2023-03-30T07:12:26.641Z,4.03
2023-03-30T07:15:00.197Z,4.70
2023-03-30T07:17:33.842Z,3.88
2023-03-30T07:20:01.464Z,4.07
2023-03-30T07:22:35.042Z,4.18
2023-03-30T07:25:01.900Z,4.00
2023-03-30T07:27:30.722Z,4.72
2023-03-30T07:30:18.011Z,4.28
2023-03-30T07:32:49.259Z,4.60
2023-03-30T07:35:23.831Z,4.35
2023-03-30T07:37:51.288Z,5.03
2023-03-30T07:40:19.741Z,4.20
2023-03-30T07:42:54.986Z,4.85
2023-03-30T07:45:21.813Z,4.57
2023-03-30T07:47:48.585Z,4.47
2023-03-30T07:50:21.758Z,3.97
2023-03-30T07:52:53.877Z,4.55
2023-03-30T07:55:20.617Z,4.25
2023-03-30T07:57:53.735Z,4.18
2023-03-30T08:00:21.663Z,4.25
2023-03-30T08:02:57.079Z,5.00
2023-03-30T08:05:24.390Z,4.72
2023-03-30T08:07:51.987Z,4.93
2023-03-30T08:10:26.066Z,4.72
2023-03-30T08:12:52.898Z,4.70
2023-03-30T08:15:19.868Z,4.90
2023-03-30T08:17:59.784Z,4.50
2023-03-30T08:20:26.565Z,4.35
2023-03-30T08:23:05.783Z,4.93
2023-03-30T08:25:32.984Z,5.15
2023-03-30T08:28:01.042Z,5.03
2023-03-30T08:30:35.035Z,5.72
2023-03-30T08:33:03.134Z,5.03
2023-03-30T08:35:30.016Z,4.38
2023-03-30T08:38:03.805Z,4.50
2023-03-30T08:40:31.404Z,4.45
2023-03-30T08:43:33.816Z,4.38
2023-03-30T08:46:02.006Z,4.82
2023-03-30T08:48:40.827Z,4.50
2023-03-30T08:51:13.631Z,4.10
2023-03-30T08:53:55.830Z,4.50
2023-03-30T08:56:34.857Z,4.65
2023-03-30T08:59:20.666Z,4.95
2023-03-30T09:02:20.864Z,4.93
2023-03-30T09:05:11.923Z,5.13
2023-03-30T09:07:53.843Z,5.90
2023-03-30T09:10:22.148Z,5.90
2023-03-30T09:12:58.852Z,5.00
2023-03-30T09:15:29.725Z,5.10
2023-03-30T09:18:21.856Z,5.30
2023-03-30T09:20:52.036Z,5.63
2023-03-30T09:23:27.865Z,6.78
2023-03-30T09:26:27.206Z,6.45
2023-03-30T09:29:28.893Z,6.57
2023-03-30T09:32:05.969Z,5.13
2023-03-30T09:34:42.921Z,5.78
2023-03-30T09:37:18.853Z,5.78
2023-03-30T09:39:52.887Z,6.60
2023-03-30T09:42:39.063Z,5.70
2023-03-30T09:45:33.377Z,5.57
2023-03-30T09:48:08.529Z,6.15
2023-03-30T09:50:50.895Z,5.28
2023-03-30T09:53:31.883Z,5.75
2023-03-30T09:56:26.392Z,6.45
2023-03-30T09:59:00.864Z,5.97
2023-03-30T10:01:38.007Z,5.38
2023-03-30T10:04:19.097Z,6.05
2023-03-30T10:06:56.659Z,5.78
2023-03-30T10:09:31.902Z,5.90
2023-03-30T10:12:05.173Z,5.18
2023-03-30T10:14:42.911Z,6.32
2023-03-30T10:17:22.484Z,5.75
2023-03-30T10:20:11.072Z,5.88
2023-03-30T10:23:02.961Z,5.57
2023-03-30T10:25:38.939Z,5.28
2023-03-30T10:28:25.396Z,5.68
2023-03-30T10:31:01.967Z,6.18
2023-03-30T10:33:31.091Z,6.70
2023-03-30T10:36:07.171Z,6.15
2023-03-30T10:38:41.978Z,5.07
2023-03-30T10:41:22.006Z,6.20
2023-03-30T10:44:38.008Z,6.28
2023-03-30T10:47:23.086Z,5.25
2023-03-30T10:50:08.651Z,6.22
2023-03-30T10:52:58.970Z,5.30
2023-03-30T10:56:04.161Z,4.63
2023-03-30T10:58:43.008Z,4.88
2023-03-30T11:01:26.413Z,4.82
2023-03-30T11:04:20.523Z,5.65
2023-03-30T11:06:59.996Z,5.30
2023-03-30T11:09:38.060Z,4.97
2023-03-30T11:12:12.424Z,4.45
2023-03-30T11:14:57.048Z,5.10
2023-03-30T11:17:46.117Z,5.60
2023-03-30T11:20:23.585Z,5.85
2023-03-30T11:23:06.015Z,4.68
2023-03-30T11:25:39.522Z,5.07
2023-03-30T11:28:27.045Z,4.70
2023-03-30T11:31:06.122Z,5.00
2023-03-30T11:33:38.966Z,4.45
2023-03-30T11:36:27.072Z,4.25
2023-03-30T11:39:07.302Z,5.35
2023-03-30T11:41:50.106Z,6.13
2023-03-30T11:44:18.043Z,4.63
2023-03-30T11:47:39.206Z,5.30
2023-03-30T11:50:30.082Z,5.00
2023-03-30T11:53:08.653Z,5.13
2023-03-30T11:56:09.112Z,4.10
2023-03-30T11:58:54.257Z,4.82
2023-03-30T12:01:27.142Z,6.72
2023-03-30T12:04:13.225Z,4.57
2023-03-30T12:06:46.469Z,5.53
2023-03-30T12:09:26.295Z,6.30
2023-03-30T12:11:53.192Z,4.53
2023-03-30T12:14:44.165Z,5.00
2023-03-30T12:17:40.167Z,5.32
2023-03-30T12:20:20.402Z,5.38
2023-03-30T12:22:59.170Z,6.30
2023-03-30T12:25:41.338Z,6.13
2023-03-30T12:28:21.166Z,5.70
2023-03-30T12:30:57.936Z,5.88
2023-03-30T12:33:54.165Z,6.72
2023-03-30T12:36:49.185Z,5.15
2023-03-30T12:39:26.780Z,5.03
2023-03-30T12:42:12.134Z,5.53
2023-03-30T12:45:03.226Z,5.53
2023-03-30T12:48:02.288Z,6.18
2023-03-30T12:50:45.195Z,5.95
2023-03-30T12:53:43.158Z,5.38
2023-03-30T12:56:36.880Z,5.80
2023-03-30T12:59:29.206Z,5.20
2023-03-30T13:02:22.785Z,6.78
2023-03-30T13:04:57.208Z,5.47
2023-03-30T13:07:38.195Z,5.72
2023-03-30T13:10:30.993Z,5.93
2023-03-30T13:13:06.230Z,5.28
2023-03-30T13:15:46.229Z,5.80
2023-03-30T13:18:13.505Z,6.82
2023-03-30T13:20:52.205Z,5.53
2023-03-30T13:23:21.860Z,7.18
2023-03-30T13:26:09.207Z,6.00
2023-03-30T13:28:42.210Z,6.05
2023-03-30T13:31:18.411Z,5.40
2023-03-30T13:33:59.226Z,5.80
2023-03-30T13:36:38.244Z,6.10
2023-03-30T13:39:05.150Z,5.57
2023-03-30T13:41:56.275Z,6.20
2023-03-30T13:44:58.609Z,5.88
2023-03-30T13:48:04.306Z,5.43
2023-03-30T13:50:35.178Z,5.30
2023-03-30T13:53:17.283Z,5.47
2023-03-30T13:55:50.725Z,4.90
2023-03-30T13:58:34.343Z,4.68
2023-03-30T14:01:14.827Z,5.32
2023-03-30T14:03:51.362Z,5.82
2023-03-30T14:06:27.420Z,4.80
2023-03-30T14:09:06.724Z,4.85
2023-03-30T14:11:44.341Z,4.43
2023-03-30T14:14:35.643Z,4.25
2023-03-30T14:17:26.327Z,4.53
2023-03-30T14:20:02.993Z,3.97
2023-03-30T14:22:47.301Z,4.55
2023-03-30T14:25:33.536Z,5.38
2023-03-30T14:28:23.310Z,4.50
2023-03-30T14:30:59.275Z,5.38
2023-03-30T14:33:39.318Z,5.03
2023-03-30T14:36:15.426Z,4.70
2023-03-30T14:38:48.543Z,4.32
2023-03-30T14:41:23.381Z,4.07
2023-03-30T14:44:02.070Z,4.43
2023-03-30T14:46:45.380Z,4.50
2023-03-30T14:49:34.441Z,4.72
2023-03-30T14:52:15.385Z,4.47
2023-03-30T14:54:48.784Z,4.43
2023-03-30T14:57:33.385Z,3.72
2023-03-30T15:00:08.474Z,4.05
2023-03-30T15:02:44.490Z,4.90
2023-03-30T15:05:25.445Z,4.82
2023-03-30T15:07:53.570Z,3.78
2023-03-30T15:10:32.415Z,4.38
2023-03-30T15:13:00.838Z,3.50
2023-03-30T15:15:38.423Z,3.90
2023-03-30T15:18:12.608Z,4.53
2023-03-30T15:20:39.529Z,4.25
2023-03-30T15:23:22.401Z,3.58
2023-03-30T15:25:56.427Z,4.25
2023-03-30T15:28:24.088Z,4.95
2023-03-30T15:30:53.079Z,3.78
2023-03-30T15:33:51.428Z,3.95
2023-03-30T15:36:20.965Z,3.78
2023-03-30T15:39:03.437Z,4.65
2023-03-30T15:41:55.419Z,4.70
2023-03-30T15:44:22.846Z,3.50
2023-03-30T15:46:58.452Z,4.30
2023-03-30T15:49:43.628Z,4.07
2023-03-30T15:52:28.442Z,3.78
2023-03-30T15:54:56.303Z,3.67
2023-03-30T15:57:28.407Z,3.15
2023-03-30T16:00:19.951Z,3.03
2023-03-30T16:03:04.494Z,3.28
2023-03-30T16:05:34.023Z,2.90
2023-03-30T16:08:07.530Z,2.58
2023-03-30T16:10:34.531Z,3.67
2023-03-30T16:13:07.003Z,3.30
2023-03-30T16:15:40.557Z,3.15
2023-03-30T16:18:13.174Z,2.75
2023-03-30T16:20:39.997Z,2.83
2023-03-30T16:23:15.519Z,3.03
2023-03-30T16:25:45.277Z,2.90
2023-03-30T16:28:25.490Z,3.75
2023-03-30T16:30:55.405Z,3.00
2023-03-30T16:33:28.497Z,2.90
2023-03-30T16:35:55.520Z,3.13
2023-03-30T16:38:22.527Z,3.25
2023-03-30T16:41:02.677Z,3.20
2023-03-30T16:43:29.746Z,3.33
2023-03-30T16:46:03.682Z,3.17
2023-03-30T16:48:37.555Z,3.47
2023-03-30T16:51:04.676Z,4.22
2023-03-30T16:53:32.023Z,3.05
2023-03-30T16:56:06.529Z,3.45
2023-03-30T16:58:39.512Z,3.47
2023-03-30T17:01:19.594Z,3.40
2023-03-30T17:03:53.540Z,3.40
2023-03-30T17:06:33.568Z,3.47
2023-03-30T17:09:01.004Z,4.05
2023-03-30T17:11:34.564Z,4.00
2023-03-30T17:14:01.354Z,4.55
2023-03-30T17:16:30.863Z,3.92
2023-03-30T17:19:06.572Z,3.87
2023-03-30T17:21:33.338Z,4.47
2023-03-30T17:24:06.624Z,3.70
2023-03-30T17:26:33.578Z,3.78
2023-03-30T17:29:06.597Z,3.65
2023-03-30T17:31:33.667Z,4.05
2023-03-30T17:34:07.711Z,3.53
2023-03-30T17:36:34.756Z,3.25
2023-03-30T17:39:11.598Z,3.30
2023-03-30T17:41:38.683Z,3.33
2023-03-30T17:44:12.630Z,3.30
2023-03-30T17:46:39.545Z,3.85
2023-03-30T17:49:22.649Z,3.20
2023-03-30T17:51:49.714Z,3.75
2023-03-30T17:54:23.623Z,3.50
2023-03-30T17:56:50.666Z,4.03
2023-03-30T17:59:24.713Z,3.95
2023-03-30T18:01:58.712Z,3.83
2023-03-30T18:04:32.651Z,3.40
2023-03-30T18:06:59.507Z,3.83
2023-03-30T18:09:32.671Z,3.58
2023-03-30T18:12:06.650Z,3.75
2023-03-30T18:14:33.662Z,3.28
2023-03-30T18:17:07.776Z,3.90
2023-03-30T18:19:34.734Z,4.00
2023-03-30T18:22:07.713Z,3.28
2023-03-30T18:24:34.587Z,4.25
2023-03-30T18:27:08.687Z,3.58
2023-03-30T18:29:37.155Z,3.42
2023-03-30T18:32:10.709Z,4.35
2023-03-30T18:34:37.599Z,3.45
2023-03-30T18:37:10.734Z,4.53
2023-03-30T18:39:37.592Z,4.00
2023-03-30T18:42:04.474Z,4.03
2023-03-30T18:44:37.729Z,3.63
2023-03-30T18:47:11.716Z,3.70
2023-03-30T18:49:39.264Z,4.03
2023-03-30T18:52:12.757Z,4.20
2023-03-30T18:54:41.267Z,4.15
2023-03-30T18:57:11.541Z,3.63
2023-03-30T18:59:51.736Z,4.10
2023-03-30T19:02:23.587Z,4.80
2023-03-30T19:04:57.736Z,3.92
2023-03-30T19:07:30.784Z,3.92
2023-03-30T19:09:57.592Z,4.43
2023-03-30T19:12:30.727Z,4.95
2023-03-30T19:15:03.811Z,5.30
2023-03-30T19:17:30.919Z,4.57
2023-03-30T19:20:03.733Z,4.57
2023-03-30T19:22:36.779Z,4.80
2023-03-30T19:25:05.088Z,4.80
2023-03-30T19:27:40.897Z,5.43
2023-03-30T19:30:23.858Z,4.93
2023-03-30T19:32:54.355Z,4.25
2023-03-30T19:35:21.805Z,4.38
2023-03-30T19:37:55.863Z,4.65
2023-03-30T19:40:23.101Z,4.28
2023-03-30T19:42:56.812Z,5.00
2023-03-30T19:45:24.476Z,5.00
2023-03-30T19:47:58.879Z,4.90
2023-03-30T19:50:31.862Z,5.43
2023-03-30T19:53:06.897Z,4.28
2023-03-30T19:55:34.356Z,4.60
2023-03-30T19:58:07.800Z,4.07
2023-03-30T20:00:42.097Z,4.15
2023-03-30T20:03:15.683Z,4.40
2023-03-30T20:05:55.851Z,5.05
2023-03-30T20:08:24.832Z,4.78
2023-03-30T20:10:59.443Z,4.78
2023-03-30T20:13:27.319Z,4.80
2023-03-30T20:16:01.913Z,5.68
2023-03-30T20:18:40.309Z,5.63
2023-03-30T20:21:16.922Z,5.30
2023-03-30T20:23:50.857Z,4.95
2023-03-30T20:26:19.332Z,4.80
2023-03-30T20:28:53.867Z,6.15
2023-03-30T20:31:27.050Z,6.32
2023-03-30T20:34:00.860Z,4.72
2023-03-30T20:36:34.939Z,4.65
2023-03-30T20:39:02.462Z,4.55
2023-03-30T20:41:44.868Z,3.70
2023-03-30T20:46:39.557Z,4.15
2023-03-30T20:49:14.945Z,4.70
2023-03-30T20:51:49.936Z,3.83
2023-03-30T20:54:17.993Z,3.67
2023-03-30T20:56:50.966Z,4.28
2023-03-30T20:59:17.823Z,3.88
2023-03-30T21:01:53.009Z,3.72
2023-03-30T21:04:28.991Z,4.45
2023-03-30T21:07:02.936Z,3.80
2023-03-30T21:09:29.981Z,3.45
2023-03-30T21:12:02.917Z,3.10
2023-03-30T21:14:35.985Z,3.13
2023-03-30T21:17:03.346Z,3.75
2023-03-30T21:19:36.939Z,4.55
2023-03-30T21:22:03.746Z,3.80
2023-03-30T21:24:36.956Z,2.72
2023-03-30T21:27:03.924Z,3.78
2023-03-30T21:29:32.382Z,4.18
2023-03-30T21:32:06.044Z,3.28
2023-03-30T21:34:32.923Z,4.25
2023-03-30T21:37:06.236Z,3.70
2023-03-30T21:39:40.018Z,4.30
2023-03-30T21:42:07.255Z,4.60
2023-03-30T21:44:41.998Z,3.85
2023-03-30T21:47:08.766Z,3.90
2023-03-30T21:49:43.979Z,3.35
2023-03-30T21:52:10.994Z,3.70
2023-03-30T21:54:45.986Z,3.58
2023-03-30T21:57:12.815Z,4.22
2023-03-30T21:59:46.017Z,4.43
2023-03-30T22:02:12.880Z,3.78
2023-03-30T22:04:45.997Z,4.20
2023-03-30T22:07:13.058Z,3.67
2023-03-30T22:09:47.041Z,4.03
2023-03-30T22:12:13.938Z,3.22
2023-03-30T22:14:47.073Z,5.28
2023-03-30T22:17:20.091Z,4.20
2023-03-30T22:19:59.065Z,3.70
2023-03-30T22:22:40.069Z,3.08
2023-03-30T22:25:07.168Z,3.03
2023-03-30T22:27:47.059Z,2.83
2023-03-30T22:30:14.593Z,3.05
2023-03-30T22:32:49.178Z,3.17
2023-03-30T22:35:16.189Z,3.13
2023-03-30T22:37:43.072Z,3.67
2023-03-30T22:40:17.062Z,3.47
2023-03-30T22:42:43.971Z,3.92
2023-03-30T22:45:18.076Z,2.85
2023-03-30T22:47:51.700Z,3.00
2023-03-30T22:50:25.161Z,3.08
2023-03-30T22:52:52.547Z,3.50
2023-03-30T22:55:19.849Z,3.67
2023-03-30T22:58:03.119Z,2.78
2023-03-30T23:00:30.032Z,2.20
2023-03-30T23:03:04.192Z,3.22
2023-03-30T23:05:40.162Z,2.17
2023-03-30T23:08:14.170Z,2.45
2023-03-30T23:10:41.750Z,2.40
2023-03-30T23:13:17.103Z,2.60
2023-03-30T23:15:48.512Z,2.45
2023-03-30T23:18:23.085Z,1.90
2023-03-30T23:21:00.175Z,2.03
2023-03-30T23:23:27.071Z,1.80
2023-03-30T23:26:01.112Z,1.67
2023-03-30T23:28:28.656Z,2.33
2023-03-30T23:31:02.157Z,1.70
2023-03-30T23:33:31.043Z,2.17
2023-03-30T23:36:09.753Z,2.83
2023-03-30T23:38:44.234Z,2.58
2023-03-30T23:41:21.166Z,2.63
2023-03-30T23:43:55.176Z,2.85
2023-03-30T23:46:23.735Z,2.42
2023-03-30T23:48:51.313Z,1.80
2023-03-30T23:51:24.242Z,1.95
2023-03-30T23:54:01.275Z,1.60
2023-03-30T23:56:32.162Z,1.83
2023-03-30T23:59:08.167Z,1.50
